createdAt,value
2022-10-29T00:00:54.088Z,50925.31
2022-10-29T00:03:21.242Z,50919.34
2022-10-29T00:05:58.082Z,50905.41
2022-10-29T00:08:24.708Z,50933.25
2022-10-29T00:10:51.285Z,50907.41
2022-10-29T00:13:17.885Z,50903.44
2022-10-29T00:15:44.499Z,50909.41
2022-10-29T00:18:11.262Z,50917.34
2022-10-29T00:20:37.821Z,50897.47
2022-10-29T00:23:04.415Z,50893.50
2022-10-29T00:25:30.978Z,50909.41
2022-10-29T00:27:58.749Z,50921.31
2022-10-29T00:30:25.383Z,50917.34
2022-10-29T00:32:52.156Z,50921.31
2022-10-29T00:35:18.853Z,50929.28
2022-10-29T00:37:46.674Z,50919.34
2022-10-29T00:40:13.287Z,50909.41
2022-10-29T00:42:39.876Z,50917.34
2022-10-29T00:45:06.812Z,50921.31
2022-10-29T00:47:36.826Z,50909.41
2022-10-29T00:50:08.233Z,50913.38
2022-10-29T00:52:38.982Z,50941.19
2022-10-29T00:55:06.990Z,50901.44
2022-10-29T00:57:42.527Z,50929.28
2022-10-29T01:00:10.795Z,50953.13
2022-10-29T01:02:38.571Z,50901.44
2022-10-29T01:05:06.334Z,50917.34
2022-10-29T01:07:32.905Z,50925.31
2022-10-29T01:09:59.541Z,50919.34
2022-10-29T01:12:37.613Z,50895.47
2022-10-29T01:15:04.158Z,50905.41
2022-10-29T01:17:42.379Z,50933.25
2022-10-29T01:20:09.112Z,50925.31
2022-10-29T01:22:46.705Z,50917.34
2022-10-29T01:25:32.135Z,50917.34
2022-10-29T01:28:16.893Z,50921.31
2022-10-29T01:30:52.758Z,50901.44
2022-10-29T01:33:25.883Z,50945.19
2022-10-29T01:36:05.813Z,50913.38
2022-10-29T01:38:42.229Z,50921.31
2022-10-29T01:41:26.599Z,50921.31
2022-10-29T01:43:57.429Z,50945.19
2022-10-29T01:46:25.001Z,50921.31
2022-10-29T01:48:54.258Z,50945.19
2022-10-29T01:51:31.119Z,50939.22
2022-10-29T01:53:59.599Z,50905.41
2022-10-29T01:56:26.310Z,50953.13
2022-10-29T01:58:54.980Z,50913.38
2022-10-29T02:01:45.916Z,50893.50
2022-10-29T02:04:31.495Z,50925.31
2022-10-29T02:07:04.156Z,50917.34
2022-10-29T02:09:50.398Z,50901.44
2022-10-29T02:12:21.219Z,50925.31
2022-10-29T02:14:51.179Z,50953.13
2022-10-29T02:17:18.084Z,50897.47
2022-10-29T02:19:44.627Z,50925.31
2022-10-29T02:22:11.278Z,50945.19
2022-10-29T02:24:37.845Z,50889.53
2022-10-29T02:27:04.511Z,50889.53
2022-10-29T02:29:31.077Z,50913.38
2022-10-29T02:31:57.895Z,50939.22
2022-10-29T02:34:25.607Z,50945.19
2022-10-29T02:36:52.158Z,50889.53
2022-10-29T02:39:18.794Z,50901.44
2022-10-29T02:41:45.726Z,50921.31
2022-10-29T02:44:12.349Z,50911.38
2022-10-29T02:46:39.850Z,50901.44
2022-10-29T02:49:07.169Z,50969.03
2022-10-29T02:51:33.970Z,50931.25
2022-10-29T02:54:01.643Z,50925.31
2022-10-29T02:56:28.273Z,50921.31
2022-10-29T02:58:55.660Z,50933.25
2022-10-29T03:01:22.353Z,50929.28
2022-10-29T03:03:49.216Z,50931.25
2022-10-29T03:06:17.500Z,50933.25
2022-10-29T03:08:44.712Z,50905.41
2022-10-29T03:11:11.557Z,50923.31
2022-10-29T03:16:06.832Z,50965.06
2022-10-29T03:18:34.062Z,50953.13
2022-10-29T03:21:00.674Z,50931.25
2022-10-29T03:23:27.303Z,50919.34
2022-10-29T03:25:56.041Z,50921.31
2022-10-29T03:28:23.971Z,50921.31
2022-10-29T03:30:51.669Z,50933.25
2022-10-29T03:33:18.294Z,50953.13
2022-10-29T03:35:45.011Z,50941.19
2022-10-29T03:38:11.758Z,50913.38
2022-10-29T03:40:38.419Z,50921.31
2022-10-29T03:43:05.000Z,50941.19
2022-10-29T03:45:31.674Z,50953.13
2022-10-29T03:47:58.541Z,50941.19
2022-10-29T03:50:25.393Z,50889.53
2022-10-29T03:52:51.984Z,50913.38
2022-10-29T03:55:18.659Z,50949.16
2022-10-29T03:57:45.280Z,50943.19
2022-10-29T04:00:12.122Z,50929.28
2022-10-29T04:02:42.812Z,50905.41
2022-10-29T04:05:10.001Z,50941.19
2022-10-29T04:07:36.614Z,50941.19
2022-10-29T04:10:03.370Z,50905.41
2022-10-29T04:12:32.281Z,50913.38
2022-10-29T04:14:58.895Z,50909.41
2022-10-29T04:17:25.513Z,50919.34
2022-10-29T04:19:52.428Z,50943.19
2022-10-29T04:30:40.604Z,50969.03
2022-10-29T04:33:07.270Z,50935.25
2022-10-29T04:35:33.905Z,50929.28
2022-10-29T04:38:07.357Z,50925.31
2022-10-29T04:40:33.933Z,50937.22
2022-10-29T04:43:00.923Z,50939.22
2022-10-29T04:45:27.510Z,50929.28
2022-10-29T04:48:01.077Z,50917.34
2022-10-29T04:50:28.177Z,50905.41
2022-10-29T04:52:58.533Z,50921.31
2022-10-29T04:55:25.349Z,50921.31
2022-10-29T04:57:51.959Z,50971.03
2022-10-29T05:00:19.030Z,50963.06
2022-10-29T05:02:49.939Z,50933.25
2022-10-29T05:05:17.019Z,50929.28
2022-10-29T05:07:43.633Z,50937.22
2022-10-29T05:10:10.240Z,50949.16
2022-10-29T05:12:36.892Z,50929.28
2022-10-29T05:15:04.116Z,50935.25
2022-10-29T05:17:30.670Z,50929.28
2022-10-29T05:19:57.204Z,50917.34
2022-10-29T05:22:23.806Z,50933.25
2022-10-29T05:24:50.389Z,50957.09
2022-10-29T05:27:16.989Z,50949.16
2022-10-29T05:29:43.569Z,50925.31
2022-10-29T05:32:10.198Z,50965.06
2022-10-29T05:34:38.422Z,50947.16
2022-10-29T05:37:06.108Z,50929.28
2022-10-29T05:39:32.680Z,50925.31
2022-10-29T05:41:59.378Z,50917.34
2022-10-29T05:44:25.922Z,50953.13
2022-10-29T05:46:52.457Z,50935.25
2022-10-29T05:49:19.135Z,50907.41
2022-10-29T05:51:45.697Z,50933.25
2022-10-29T05:54:12.798Z,50929.28
2022-10-29T05:56:39.419Z,50945.19
2022-10-29T05:59:06.007Z,50953.13
2022-10-29T06:01:32.746Z,50941.19
2022-10-29T06:04:01.293Z,50917.34
2022-10-29T06:06:28.116Z,50976.97
2022-10-29T06:08:54.809Z,50925.31
2022-10-29T06:11:21.420Z,50992.88
2022-10-29T06:13:48.030Z,50969.03
2022-10-29T06:16:14.598Z,50937.22
2022-10-29T06:18:41.194Z,50969.03
2022-10-29T06:21:07.891Z,50959.09
2022-10-29T06:23:34.478Z,50929.28
2022-10-29T06:26:01.889Z,50973.00
2022-10-29T06:28:34.548Z,50969.03
2022-10-29T06:31:01.681Z,50961.06
2022-10-29T06:33:28.290Z,50945.19
2022-10-29T06:35:58.144Z,50921.31
2022-10-29T06:38:24.895Z,50923.31
2022-10-29T06:40:55.213Z,50957.09
2022-10-29T06:43:21.874Z,50933.25
2022-10-29T06:45:49.831Z,50925.31
2022-10-29T06:48:21.721Z,50941.19
2022-10-29T06:50:49.464Z,50973.00
2022-10-29T06:53:16.359Z,50969.03
2022-10-29T06:55:42.977Z,50925.31
2022-10-29T06:58:09.551Z,50965.06
2022-10-29T07:00:36.561Z,50975.00
2022-10-29T07:03:04.955Z,50945.19
2022-10-29T07:05:32.244Z,50949.16
2022-10-29T07:08:00.188Z,50957.09
2022-10-29T07:10:28.268Z,50957.09
2022-10-29T07:12:54.821Z,50933.25
2022-10-29T07:15:24.259Z,50969.03
2022-10-29T07:18:01.419Z,50969.03
2022-10-29T07:20:28.909Z,50957.09
2022-10-29T07:22:57.756Z,50949.16
2022-10-29T07:25:24.541Z,50957.09
2022-10-29T07:27:51.350Z,50953.13
2022-10-29T07:30:18.036Z,50961.06
2022-10-29T07:32:44.598Z,50976.97
2022-10-29T07:35:11.213Z,50965.06
2022-10-29T07:37:37.889Z,50961.06
2022-10-29T07:40:04.886Z,50973.00
2022-10-29T07:42:31.490Z,50984.94
2022-10-29T07:44:58.089Z,50937.22
2022-10-29T07:47:25.979Z,50969.03
2022-10-29T07:49:52.560Z,50941.19
2022-10-29T07:52:19.176Z,50969.03
2022-10-29T07:54:45.828Z,50921.31
2022-10-29T07:57:12.516Z,50973.00
2022-10-29T07:59:39.126Z,50967.03
2022-10-29T08:02:05.883Z,50949.16
2022-10-29T08:04:32.611Z,50984.94
2022-10-29T08:06:59.196Z,50951.13
2022-10-29T08:09:25.729Z,50957.09
2022-10-29T08:11:52.428Z,50980.97
2022-10-29T08:14:22.523Z,50955.13
2022-10-29T08:16:49.432Z,50949.16
2022-10-29T08:19:16.064Z,50976.97
2022-10-29T08:21:42.666Z,50949.16
2022-10-29T08:24:09.962Z,50973.00
2022-10-29T08:26:36.549Z,50973.00
2022-10-29T08:29:03.182Z,51000.84
2022-10-29T08:31:29.805Z,50955.13
2022-10-29T08:33:56.425Z,50967.03
2022-10-29T08:36:23.080Z,50976.97
2022-10-29T08:38:49.667Z,50969.03
2022-10-29T08:41:19.226Z,50992.88
2022-10-29T08:44:10.912Z,50963.06
2022-10-29T08:46:44.078Z,50945.19
2022-10-29T08:49:14.299Z,50965.06
2022-10-29T08:51:43.779Z,51004.81
2022-10-29T08:57:04.589Z,50961.06
2022-10-29T08:59:33.089Z,50967.03
2022-10-29T09:01:59.843Z,50982.94
2022-10-29T09:04:44.478Z,50980.97
2022-10-29T09:07:34.468Z,50965.06
2022-10-29T09:10:07.094Z,50959.09
2022-10-29T09:12:36.470Z,51008.78
2022-10-29T09:15:05.822Z,50984.94
2022-10-29T09:17:51.070Z,50973.00
2022-10-29T09:20:36.228Z,50971.03
2022-10-29T09:23:25.296Z,50980.97
2022-10-29T09:26:03.581Z,50959.09
2022-10-29T09:28:41.718Z,50976.97
2022-10-29T09:31:17.188Z,50951.13
2022-10-29T09:33:45.180Z,50951.13
2022-10-29T09:36:15.617Z,50965.06
2022-10-29T09:38:59.491Z,50969.03
2022-10-29T09:41:27.144Z,50992.88
2022-10-29T09:44:02.103Z,50992.88
2022-10-29T09:46:47.345Z,50984.94
2022-10-29T09:49:16.677Z,50945.19
2022-10-29T09:51:58.444Z,50982.94
2022-10-29T09:54:26.752Z,50984.94
2022-10-29T09:56:55.993Z,50949.16
2022-10-29T09:59:22.880Z,50996.84
2022-10-29T10:01:49.521Z,50975.00
2022-10-29T10:04:36.424Z,51008.78
2022-10-29T10:07:05.219Z,50976.97
2022-10-29T10:09:50.687Z,50973.00
2022-10-29T10:12:17.641Z,50967.03
2022-10-29T10:14:44.248Z,50978.97
2022-10-29T10:17:10.821Z,50973.00
2022-10-29T10:19:42.812Z,50971.03
2022-10-29T10:22:17.032Z,50967.03
2022-10-29T10:24:43.708Z,50961.06
2022-10-29T10:27:19.086Z,50953.13
2022-10-29T10:30:03.885Z,50994.88
2022-10-29T10:32:31.035Z,51024.69
2022-10-29T10:34:57.682Z,50965.06
2022-10-29T10:37:24.414Z,50980.97
2022-10-29T10:39:53.320Z,50957.09
2022-10-29T10:42:26.447Z,50967.03
2022-10-29T10:44:56.685Z,50945.19
2022-10-29T10:47:25.183Z,51020.72
2022-10-29T10:49:52.051Z,50988.91
2022-10-29T10:52:21.347Z,50969.03
2022-10-29T10:54:56.405Z,51002.81
2022-10-29T10:57:25.382Z,50957.09
2022-10-29T11:00:02.712Z,50984.94
2022-10-29T11:02:44.057Z,50976.97
2022-10-29T11:05:21.348Z,50945.19
2022-10-29T11:07:54.282Z,50949.16
2022-10-29T11:10:25.618Z,50961.06
2022-10-29T11:12:54.464Z,50969.03
2022-10-29T11:15:33.322Z,50996.84
2022-10-29T11:18:04.087Z,50978.97
2022-10-29T11:20:35.891Z,50969.03
2022-10-29T11:23:02.609Z,51012.75
2022-10-29T11:25:37.733Z,50982.94
2022-10-29T11:28:07.150Z,50992.88
2022-10-29T11:30:36.900Z,50943.19
2022-10-29T11:33:13.064Z,50982.94
2022-10-29T11:35:42.733Z,50969.03
2022-10-29T11:38:24.870Z,50973.00
2022-10-29T11:41:04.860Z,50990.91
2022-10-29T11:43:32.388Z,51012.75
2022-10-29T11:46:17.594Z,50988.91
2022-10-29T11:49:02.295Z,50933.25
2022-10-29T11:51:33.263Z,50982.94
2022-10-29T11:53:59.948Z,50969.03
2022-10-29T11:56:29.702Z,51024.69
2022-10-29T11:59:07.541Z,50957.09
2022-10-29T12:01:34.227Z,50976.97
2022-10-29T12:04:14.935Z,50976.97
2022-10-29T12:06:55.593Z,50969.03
2022-10-29T12:09:37.558Z,50996.84
2022-10-29T12:12:10.746Z,50967.03
2022-10-29T12:14:44.109Z,50984.94
2022-10-29T12:17:13.477Z,50971.03
2022-10-29T12:19:40.270Z,50976.97
2022-10-29T12:22:15.029Z,50949.16
2022-10-29T12:24:41.562Z,50949.16
2022-10-29T12:27:14.520Z,50957.09
2022-10-29T12:29:58.952Z,50953.13
2022-10-29T12:32:44.414Z,50933.25
2022-10-29T12:35:13.839Z,50945.19
2022-10-29T12:37:59.324Z,50959.09
2022-10-29T12:40:28.862Z,50945.19
2022-10-29T12:42:56.587Z,50913.38
2022-10-29T12:45:32.923Z,50933.25
2022-10-29T12:48:07.056Z,50937.22
2022-10-29T12:50:48.949Z,50897.47
2022-10-29T12:53:15.511Z,50883.56
2022-10-29T12:55:44.444Z,50891.50
2022-10-29T12:58:29.851Z,50881.56
2022-10-29T13:00:56.519Z,50905.41
2022-10-29T13:03:42.494Z,50883.56
2022-10-29T13:06:28.216Z,50893.50
2022-10-29T13:08:57.623Z,50853.75
2022-10-29T13:11:44.434Z,50873.63
2022-10-29T13:14:12.839Z,50867.66
2022-10-29T13:16:40.332Z,50837.84
2022-10-29T13:19:14.133Z,50875.59
2022-10-29T13:21:57.765Z,50889.53
2022-10-29T13:24:24.887Z,50849.75
2022-10-29T13:26:56.917Z,50839.81
2022-10-29T13:29:41.954Z,50841.81
2022-10-29T13:32:08.572Z,50849.75
2022-10-29T13:34:55.531Z,50865.66
2022-10-29T13:37:34.467Z,50851.75
2022-10-29T13:40:20.528Z,50843.81
2022-10-29T13:42:49.706Z,50833.88
2022-10-29T13:45:16.372Z,50885.53
2022-10-29T13:47:43.080Z,50863.69
2022-10-29T13:50:11.237Z,50861.69
2022-10-29T13:52:40.874Z,50825.91
2022-10-29T13:55:08.802Z,50861.69
2022-10-29T13:57:40.343Z,50857.72
2022-10-29T14:00:07.217Z,50885.53
2022-10-29T14:02:37.201Z,50851.75
2022-10-29T14:05:24.313Z,50877.59
2022-10-29T14:07:57.016Z,50877.59
2022-10-29T14:13:00.898Z,50885.53
2022-10-29T14:15:27.601Z,50897.47
2022-10-29T14:17:54.170Z,50881.56
2022-10-29T14:20:25.007Z,50857.72
2022-10-29T14:22:51.759Z,50849.75
2022-10-29T14:25:24.307Z,50877.59
2022-10-29T14:28:32.212Z,50849.75
2022-10-29T14:31:19.094Z,50869.66
2022-10-29T14:33:46.544Z,50849.75
2022-10-29T14:36:15.984Z,50893.50
2022-10-29T14:38:47.026Z,50877.59
2022-10-29T14:41:14.970Z,50881.56
2022-10-29T14:43:42.217Z,50893.50
2022-10-29T14:46:10.985Z,50885.53
2022-10-29T14:48:38.766Z,50897.47
2022-10-29T14:51:05.617Z,50881.56
2022-10-29T14:53:34.481Z,50877.59
2022-10-29T14:56:04.390Z,50881.56
2022-10-29T14:58:32.661Z,50933.25
2022-10-29T15:01:09.195Z,50893.50
2022-10-29T15:03:36.016Z,50901.44
2022-10-29T15:06:13.881Z,50905.41
2022-10-29T15:08:41.477Z,50933.25
2022-10-29T15:11:26.795Z,50917.34
2022-10-29T15:13:53.496Z,50917.34
2022-10-29T15:16:21.366Z,50961.06
2022-10-29T15:18:53.018Z,50929.28
2022-10-29T15:21:27.138Z,50925.31
2022-10-29T15:23:57.737Z,50903.44
2022-10-29T15:26:24.469Z,50907.41
2022-10-29T15:28:56.069Z,50915.38
2022-10-29T15:31:27.715Z,50949.16
2022-10-29T15:33:55.368Z,50929.28
2022-10-29T15:36:21.985Z,50933.25
2022-10-29T15:38:52.263Z,50925.31
2022-10-29T15:41:43.914Z,50905.41
2022-10-29T15:44:28.130Z,50925.31
2022-10-29T15:46:59.002Z,50937.22
2022-10-29T15:49:32.365Z,50931.25
2022-10-29T15:52:01.756Z,50949.16
2022-10-29T15:54:28.670Z,50953.13
2022-10-29T15:56:55.325Z,50933.25
2022-10-29T15:59:23.727Z,50919.34
2022-10-29T16:01:50.385Z,50929.28
2022-10-29T16:04:17.086Z,50909.41
2022-10-29T16:06:43.713Z,50917.34
2022-10-29T16:09:16.184Z,50925.31
2022-10-29T16:11:42.828Z,50921.31
2022-10-29T16:14:10.050Z,50939.22
2022-10-29T16:16:37.925Z,50917.34
2022-10-29T16:19:04.492Z,50925.31
2022-10-29T16:21:31.093Z,50917.34
2022-10-29T16:23:57.697Z,50933.25
2022-10-29T16:26:25.091Z,50957.09
2022-10-29T16:28:54.521Z,50929.28
2022-10-29T16:31:25.366Z,50933.25
2022-10-29T16:33:52.976Z,50913.38
2022-10-29T16:36:19.698Z,50929.28
2022-10-29T16:38:46.289Z,50931.25
2022-10-29T16:41:14.145Z,50941.19
2022-10-29T16:43:40.866Z,50913.38
2022-10-29T16:46:07.872Z,50937.22
2022-10-29T16:48:34.625Z,50933.25
2022-10-29T16:51:01.497Z,50913.38
2022-10-29T16:53:28.225Z,50919.34
2022-10-29T16:55:54.823Z,50953.13
2022-10-29T16:58:21.387Z,50945.19
2022-10-29T17:00:48.170Z,50949.16
2022-10-29T17:03:15.813Z,50937.22
2022-10-29T17:05:43.971Z,50969.03
2022-10-29T17:08:11.028Z,50931.25
2022-10-29T17:10:37.610Z,50961.06
2022-10-29T17:13:04.895Z,50961.06
2022-10-29T17:15:31.997Z,50897.47
2022-10-29T17:17:58.908Z,50941.19
2022-10-29T17:20:25.890Z,50937.22
2022-10-29T17:22:52.836Z,50929.28
2022-10-29T17:25:19.417Z,50929.28
2022-10-29T17:27:46.012Z,50931.25
2022-10-29T17:30:12.722Z,50953.13
2022-10-29T17:32:39.344Z,50909.41
2022-10-29T17:35:06.195Z,50901.44
2022-10-29T17:37:32.836Z,50917.34
2022-10-29T17:40:03.162Z,50937.22
2022-10-29T17:42:34.624Z,50913.38
2022-10-29T17:45:01.165Z,50945.19
2022-10-29T17:47:28.030Z,50917.34
2022-10-29T17:49:54.726Z,50937.22
2022-10-29T17:52:22.389Z,50921.31
2022-10-29T17:54:48.991Z,50937.22
2022-10-29T17:57:15.545Z,50945.19
2022-10-29T17:59:42.169Z,50933.25
2022-10-29T18:02:10.058Z,50933.25
2022-10-29T18:04:36.816Z,50929.28
2022-10-29T18:07:03.412Z,50953.13
2022-10-29T18:09:30.023Z,50917.34
2022-10-29T18:11:56.689Z,50905.41
2022-10-29T18:14:23.238Z,50913.38
2022-10-29T18:16:49.880Z,50905.41
2022-10-29T18:19:17.359Z,50905.41
2022-10-29T18:21:44.080Z,50933.25
2022-10-29T18:24:10.822Z,50945.19
2022-10-29T18:26:37.546Z,50953.13
2022-10-29T18:29:08.439Z,50921.31
2022-10-29T18:31:35.342Z,50907.41
2022-10-29T18:34:05.203Z,50935.25
2022-10-29T18:36:32.146Z,50925.31
2022-10-29T18:38:59.117Z,50913.38
2022-10-29T18:41:26.127Z,50941.19
2022-10-29T18:43:52.941Z,50901.44
2022-10-29T18:46:19.715Z,50909.41
2022-10-29T18:48:47.468Z,50919.34
2022-10-29T18:51:14.078Z,50945.19
2022-10-29T18:53:40.681Z,50915.38
2022-10-29T18:56:14.555Z,50899.47
2022-10-29T18:58:41.586Z,50905.41
2022-10-29T19:01:09.695Z,50897.47
2022-10-29T19:03:37.113Z,50923.31
2022-10-29T19:06:04.614Z,50941.19
2022-10-29T19:08:33.575Z,50913.38
2022-10-29T19:11:04.276Z,50917.34
2022-10-29T19:13:31.505Z,50941.19
2022-10-29T19:16:05.783Z,50965.06
2022-10-29T19:18:33.017Z,50907.41
2022-10-29T19:21:07.142Z,50925.31
2022-10-29T19:23:34.136Z,50933.25
2022-10-29T19:26:08.218Z,50919.34
2022-10-29T19:28:35.218Z,50917.34
2022-10-29T19:31:11.974Z,50909.41
2022-10-29T19:33:38.870Z,50913.38
2022-10-29T19:36:06.219Z,50921.31
2022-10-29T19:38:32.902Z,50945.19
2022-10-29T19:40:59.601Z,50917.34
2022-10-29T19:43:27.076Z,50909.41
2022-10-29T19:45:53.677Z,50939.22
2022-10-29T19:48:20.370Z,50933.25
2022-10-29T19:50:53.828Z,50929.28
2022-10-29T19:53:20.690Z,50905.41
2022-10-29T19:55:50.416Z,50925.31
2022-10-29T19:58:21.525Z,50919.34
2022-10-29T20:00:48.200Z,50955.13
2022-10-29T20:03:14.907Z,50921.31
2022-10-29T20:05:41.830Z,50965.06
2022-10-29T20:08:11.433Z,50949.16
2022-10-29T20:10:41.505Z,50901.44
2022-10-29T20:13:08.153Z,50893.50
2022-10-29T20:15:34.841Z,50885.53
2022-10-29T20:18:01.535Z,50937.22
2022-10-29T20:20:28.149Z,50913.38
2022-10-29T20:22:55.242Z,50893.50
2022-10-29T20:25:23.813Z,50919.34
2022-10-29T20:27:50.901Z,50907.41
2022-10-29T20:30:17.621Z,50921.31
2022-10-29T20:32:44.189Z,50941.19
2022-10-29T20:35:10.830Z,50933.25
2022-10-29T20:37:38.274Z,50917.34
2022-10-29T20:40:05.315Z,50913.38
2022-10-29T20:42:31.884Z,50927.28
2022-10-29T20:44:58.468Z,50901.44
2022-10-29T20:47:25.065Z,50909.41
2022-10-29T20:49:51.696Z,50931.25
2022-10-29T20:52:18.313Z,50905.41
2022-10-29T20:54:44.885Z,50921.31
2022-10-29T20:57:11.638Z,50925.31
2022-10-29T20:59:38.199Z,50923.31
2022-10-29T21:02:05.008Z,50913.38
2022-10-29T21:04:31.657Z,50949.16
2022-10-29T21:06:58.217Z,50879.59
2022-10-29T21:09:24.820Z,50933.25
2022-10-29T21:11:51.391Z,50909.41
2022-10-29T21:14:17.991Z,50913.38
2022-10-29T21:16:44.567Z,50913.38
2022-10-29T21:19:11.216Z,50901.44
2022-10-29T21:21:39.961Z,50917.34
2022-10-29T21:24:06.708Z,50933.25
2022-10-29T21:26:33.284Z,50855.72
2022-10-29T21:28:59.916Z,50937.22
2022-10-29T21:31:26.559Z,50937.22
2022-10-29T21:33:54.446Z,50897.47
2022-10-29T21:36:21.359Z,50909.41
2022-10-29T21:38:48.893Z,50929.28
2022-10-29T21:41:15.637Z,50949.16
2022-10-29T21:43:42.257Z,50945.19
2022-10-29T21:46:08.950Z,50933.25
2022-10-29T21:48:35.524Z,50937.22
2022-10-29T21:51:11.966Z,50925.31
2022-10-29T21:53:38.924Z,50899.47
2022-10-29T21:56:06.589Z,50925.31
2022-10-29T21:58:33.660Z,50933.25
2022-10-29T22:01:03.616Z,50901.44
2022-10-29T22:03:31.605Z,50943.19
2022-10-29T22:06:01.853Z,50929.28
2022-10-29T22:08:28.403Z,50937.22
2022-10-29T22:10:58.437Z,50949.16
2022-10-29T22:13:25.202Z,50893.50
2022-10-29T22:15:51.752Z,50945.19
2022-10-29T22:18:18.344Z,50933.25
2022-10-29T22:20:44.979Z,50945.19
2022-10-29T22:23:11.594Z,50925.31
2022-10-29T22:25:38.236Z,50941.19
2022-10-29T22:28:04.922Z,50953.13
2022-10-29T22:30:31.538Z,50937.22
2022-10-29T22:32:58.133Z,50947.16
2022-10-29T22:35:24.728Z,50929.28
2022-10-29T22:37:53.110Z,50945.19
2022-10-29T22:40:19.695Z,50893.50
2022-10-29T22:42:46.225Z,50913.38
2022-10-29T22:45:12.863Z,50909.41
2022-10-29T22:47:39.502Z,50965.06
2022-10-29T22:50:06.167Z,50889.53
2022-10-29T22:52:32.810Z,50913.38
2022-10-29T22:54:59.476Z,50933.25
2022-10-29T22:57:26.088Z,50949.16
2022-10-29T22:59:52.684Z,50897.47
2022-10-29T23:02:19.343Z,50881.56
2022-10-29T23:04:46.034Z,50905.41
2022-10-29T23:07:12.604Z,50921.31
2022-10-29T23:09:39.253Z,50917.34
2022-10-29T23:12:06.971Z,50909.41
2022-10-29T23:14:33.591Z,50921.31
2022-10-29T23:17:00.182Z,50911.38
2022-10-29T23:19:26.765Z,50927.28
2022-10-29T23:21:53.364Z,50913.38
2022-10-29T23:24:19.932Z,50893.50
2022-10-29T23:26:46.510Z,50913.38
2022-10-29T23:29:13.103Z,50897.47
2022-10-29T23:31:39.752Z,50905.41
2022-10-29T23:34:06.411Z,50889.53
2022-10-29T23:36:33.619Z,50929.28
2022-10-29T23:39:01.285Z,50913.38
2022-10-29T23:41:28.336Z,50917.34
2022-10-29T23:43:55.300Z,50945.19
2022-10-29T23:46:22.223Z,50919.34
2022-10-29T23:48:49.206Z,50913.38
2022-10-29T23:51:16.072Z,50927.28
2022-10-29T23:53:42.656Z,50933.25
2022-10-29T23:56:09.296Z,50909.41
2022-10-29T23:58:35.948Z,50937.22
